createdAt,value
2023-03-04T00:03:08.670Z,0.00
2023-03-04T00:08:09.868Z,0.00
2023-03-04T00:13:11.077Z,0.00
2023-03-04T00:18:12.226Z,0.00
2023-03-04T00:23:13.346Z,0.00
2023-03-04T00:28:15.495Z,0.00
2023-03-04T00:33:14.724Z,0.00
2023-03-04T00:38:15.839Z,0.00
2023-03-04T00:43:16.985Z,0.00
2023-03-04T00:48:18.129Z,0.00
2023-03-04T00:53:21.282Z,0.00
2023-03-04T00:58:21.414Z,0.00
2023-03-04T01:03:20.543Z,0.00
2023-03-04T01:08:21.693Z,0.00
2023-03-04T01:13:22.831Z,0.00
2023-03-04T01:18:25.000Z,0.00
2023-03-04T01:23:24.178Z,0.00
2023-03-04T01:28:25.355Z,0.00
2023-03-04T01:33:26.540Z,0.00
2023-03-04T01:38:28.675Z,0.00
2023-03-04T01:43:26.821Z,0.00
2023-03-04T01:48:27.973Z,0.00
2023-03-04T01:53:29.106Z,0.00
2023-03-04T01:58:31.243Z,0.00
2023-03-04T02:03:30.426Z,0.00
2023-03-04T02:08:32.579Z,0.00
2023-03-04T02:13:34.743Z,0.00
2023-03-04T02:18:32.840Z,0.00
2023-03-04T02:23:32.035Z,0.00
2023-03-04T02:28:33.195Z,0.00
2023-03-04T02:33:34.616Z,0.00
2023-03-04T02:38:35.788Z,0.00
2023-03-04T02:43:36.899Z,0.00
2023-03-04T02:48:38.054Z,0.00
2023-03-04T02:53:39.252Z,0.00
2023-03-04T02:58:41.359Z,0.00
2023-03-04T03:03:40.490Z,0.00
2023-03-04T03:08:41.660Z,0.00
2023-03-04T03:13:42.826Z,0.00
2023-03-04T03:18:43.979Z,0.00
2023-03-04T03:23:45.140Z,0.00
2023-03-04T03:28:46.591Z,0.00
2023-03-04T03:33:46.774Z,0.00
2023-03-04T03:38:45.917Z,0.00
2023-03-04T03:43:47.209Z,0.00
2023-03-04T03:48:48.369Z,0.00
2023-03-04T03:53:50.533Z,0.00
2023-03-04T03:58:49.725Z,0.00
2023-03-04T04:03:50.885Z,0.00
2023-03-04T04:08:53.178Z,0.00
2023-03-04T04:13:52.302Z,0.00
2023-03-04T04:18:53.462Z,0.00
2023-03-04T04:23:55.635Z,0.00
2023-03-04T04:28:55.744Z,0.00
2023-03-04T04:33:54.898Z,0.00
2023-03-04T04:38:56.018Z,0.00
2023-03-04T04:43:57.206Z,0.00
2023-03-04T04:48:58.361Z,0.00
2023-03-04T04:53:59.543Z,0.00
2023-03-04T04:59:00.692Z,0.00
2023-03-04T05:04:01.865Z,0.00
2023-03-04T05:09:03.033Z,0.00
2023-03-04T05:14:04.238Z,0.00
2023-03-04T05:19:05.434Z,0.00
2023-03-04T05:24:07.577Z,0.00
2023-03-04T05:29:06.762Z,4.00
2023-03-04T05:34:06.929Z,4.00
2023-03-04T05:39:08.095Z,8.00
2023-03-04T05:44:09.229Z,20.00
2023-03-04T05:49:10.405Z,40.00
2023-03-04T05:54:11.533Z,76.00
2023-03-04T05:59:12.691Z,124.00
2023-03-04T06:04:14.904Z,196.00
2023-03-04T06:09:14.106Z,284.00
2023-03-04T06:14:15.341Z,388.00
2023-03-04T06:19:16.656Z,536.00
2023-03-04T06:24:17.819Z,676.00
2023-03-04T06:29:20.014Z,740.00
2023-03-04T06:34:19.172Z,820.00
2023-03-04T06:39:20.338Z,1040.00
2023-03-04T06:44:21.516Z,1404.00
2023-03-04T06:49:22.688Z,1784.00
2023-03-04T06:54:23.840Z,2184.00
2023-03-04T06:59:25.019Z,2548.00
2023-03-04T07:04:26.308Z,2816.00
2023-03-04T07:09:28.452Z,2564.00
2023-03-04T07:14:27.578Z,1956.00
2023-03-04T07:19:30.031Z,2372.00
2023-03-04T07:24:30.288Z,2480.00
2023-03-04T07:29:29.780Z,2540.00
2023-03-04T07:34:27.894Z,2536.00
2023-03-04T07:39:29.056Z,2836.00
2023-03-04T07:44:30.185Z,3100.00
2023-03-04T07:49:33.333Z,3096.00
2023-03-04T07:54:32.523Z,3320.00
2023-03-04T07:59:34.645Z,3284.00
2023-03-04T08:04:34.781Z,3884.00
2023-03-04T08:09:33.949Z,3584.00
2023-03-04T08:14:35.099Z,4124.00
2023-03-04T08:19:36.270Z,3524.00
2023-03-04T08:24:37.416Z,3712.00
2023-03-04T08:29:38.742Z,4064.00
2023-03-04T08:34:39.845Z,4376.00
2023-03-04T08:39:40.989Z,5036.00
2023-03-04T08:44:43.109Z,4776.00
2023-03-04T08:49:42.288Z,4812.00
2023-03-04T08:54:43.414Z,5032.00
2023-03-04T08:59:44.591Z,5056.00
2023-03-04T09:04:46.735Z,4984.00
2023-03-04T09:09:45.839Z,4936.00
2023-03-04T09:14:53.232Z,4528.00
2023-03-04T09:19:47.966Z,5120.00
2023-03-04T09:24:47.109Z,5460.00
2023-03-04T09:29:48.252Z,6160.00
2023-03-04T09:34:50.414Z,6024.00
2023-03-04T09:39:49.530Z,6104.00
2023-03-04T09:44:50.659Z,5884.00
2023-03-04T09:49:51.760Z,6400.00
2023-03-04T09:54:56.806Z,6680.00
2023-03-04T09:59:53.902Z,6844.00
2023-03-04T10:04:55.123Z,7160.00
2023-03-04T10:09:56.273Z,6324.00
2023-03-04T10:14:57.417Z,7044.00
2023-03-04T10:19:58.561Z,7176.00
2023-03-04T10:24:59.699Z,6492.00
2023-03-04T10:30:00.861Z,5744.00
2023-03-04T10:35:01.992Z,5808.00
2023-03-04T10:40:04.167Z,5808.00
2023-03-04T10:45:04.435Z,5856.00
2023-03-04T10:50:04.598Z,5824.00
2023-03-04T10:55:03.715Z,5868.00
2023-03-04T11:00:04.858Z,5924.00
2023-03-04T11:05:06.024Z,5928.00
2023-03-04T11:10:07.146Z,5952.00
2023-03-04T11:15:08.267Z,6000.00
2023-03-04T11:20:09.382Z,5768.00
2023-03-04T11:25:11.586Z,5808.00
2023-03-04T11:30:15.101Z,5580.00
2023-03-04T11:35:12.223Z,5252.00
2023-03-04T11:40:12.393Z,4672.00
2023-03-04T11:45:27.865Z,5632.00
2023-03-04T11:50:11.476Z,4936.00
2023-03-04T11:55:13.831Z,5472.00
2023-03-04T12:00:14.005Z,5592.00
2023-03-04T12:05:14.108Z,5580.00
2023-03-04T12:10:14.224Z,5484.00
2023-03-04T12:15:15.335Z,5484.00
2023-03-04T12:20:12.779Z,5644.00
2023-03-04T12:25:17.446Z,5496.00
2023-03-04T12:30:13.559Z,5624.00
2023-03-04T12:35:16.098Z,5544.00
2023-03-04T12:40:15.251Z,5568.00
2023-03-04T12:45:16.679Z,5488.00
2023-03-04T12:50:19.762Z,5420.00
2023-03-04T12:55:19.949Z,5516.00
2023-03-04T13:00:20.067Z,5504.00
2023-03-04T13:05:19.224Z,5540.00
2023-03-04T13:10:20.341Z,5504.00
2023-03-04T13:15:21.495Z,5524.00
2023-03-04T13:20:22.649Z,5556.00
2023-03-04T13:25:24.789Z,5540.00
2023-03-04T13:30:24.917Z,5520.00
2023-03-04T13:35:25.027Z,5556.00
2023-03-04T13:40:25.149Z,5520.00
2023-03-04T13:45:24.581Z,5548.00
2023-03-04T13:50:25.669Z,5512.00
2023-03-04T13:55:26.783Z,5516.00
2023-03-04T14:00:29.012Z,5484.00
2023-03-04T14:05:30.426Z,5384.00
2023-03-04T14:10:29.511Z,5400.00
2023-03-04T14:15:32.634Z,5364.00
2023-03-04T14:20:31.854Z,5272.00
2023-03-04T14:25:36.804Z,5216.00
2023-03-04T14:30:42.805Z,5000.00
2023-03-04T14:35:36.175Z,4740.00
2023-03-04T14:40:35.283Z,4804.00
2023-03-04T14:45:36.402Z,4752.00
2023-03-04T14:50:37.883Z,4728.00
2023-03-04T14:55:37.015Z,4612.00
2023-03-04T15:00:38.184Z,4444.00
2023-03-04T15:05:39.285Z,4308.00
2023-03-04T15:10:40.593Z,4188.00
2023-03-04T15:15:42.795Z,4008.00
2023-03-04T15:20:43.039Z,3780.00
2023-03-04T15:25:43.327Z,3492.00
2023-03-04T15:30:43.618Z,2964.00
2023-03-04T15:35:45.066Z,2752.00
2023-03-04T15:40:43.320Z,2620.00
2023-03-04T15:45:43.661Z,2512.00
2023-03-04T15:50:44.047Z,2372.00
2023-03-04T15:55:43.246Z,2264.00
2023-03-04T16:00:44.662Z,2128.00
2023-03-04T16:05:43.889Z,1988.00
2023-03-04T16:10:46.255Z,1832.00
2023-03-04T16:15:46.836Z,1688.00
2023-03-04T16:20:46.078Z,1532.00
2023-03-04T16:25:48.202Z,1372.00
2023-03-04T16:30:47.440Z,1204.00
2023-03-04T16:35:50.805Z,1036.00
2023-03-04T16:40:50.397Z,880.00
2023-03-04T16:45:50.590Z,728.00
2023-03-04T16:50:49.797Z,580.00
2023-03-04T16:55:50.921Z,440.00
2023-03-04T17:00:53.304Z,320.00
2023-03-04T17:05:53.520Z,212.00
2023-03-04T17:10:54.920Z,128.00
2023-03-04T17:15:55.341Z,68.00
2023-03-04T17:20:54.794Z,32.00
2023-03-04T17:25:54.304Z,12.00
2023-03-04T17:30:55.762Z,4.00
2023-03-04T17:35:53.422Z,0.00
2023-03-04T17:40:56.493Z,4.00
2023-03-04T17:45:53.674Z,0.00
2023-03-04T17:50:55.146Z,0.00
2023-03-04T17:55:54.575Z,0.00
2023-03-04T18:01:00.454Z,0.00
2023-03-04T18:05:55.984Z,0.00
2023-03-04T18:10:55.393Z,0.00
2023-03-04T18:15:56.970Z,0.00
2023-03-04T18:20:56.510Z,0.00
2023-03-04T18:25:56.982Z,0.00
2023-03-04T18:30:56.404Z,0.00
2023-03-04T18:35:57.994Z,0.00
2023-03-04T18:40:57.248Z,0.00
2023-03-04T18:45:58.411Z,0.00
2023-03-04T18:51:00.641Z,0.00
2023-03-04T18:55:59.824Z,0.00
2023-03-04T19:01:01.254Z,0.00
2023-03-04T19:06:00.752Z,0.00
2023-03-04T19:11:00.235Z,0.00
2023-03-04T19:15:59.787Z,0.00
2023-03-04T19:21:00.228Z,0.00
2023-03-04T19:26:00.415Z,0.00
2023-03-04T19:31:00.040Z,0.00
2023-03-04T19:35:59.552Z,0.00
2023-03-04T19:41:01.115Z,0.00
2023-03-04T19:45:58.585Z,0.00
2023-03-04T19:50:58.031Z,0.00
2023-03-04T19:55:59.250Z,0.00
2023-03-04T20:01:01.477Z,0.00
2023-03-04T20:06:02.039Z,0.00
2023-03-04T20:11:01.609Z,0.00
2023-03-04T20:16:02.191Z,0.00
2023-03-04T20:21:01.676Z,0.00
2023-03-04T20:26:02.135Z,0.00
2023-03-04T20:31:01.639Z,0.00
2023-03-04T20:36:01.108Z,0.00
2023-03-04T20:41:00.572Z,0.00
2023-03-04T20:46:02.172Z,0.00
2023-03-04T20:51:01.630Z,0.00
2023-03-04T20:56:02.876Z,0.00
2023-03-04T21:01:04.129Z,0.00
2023-03-04T21:06:06.464Z,0.00
2023-03-04T21:11:05.706Z,0.00
2023-03-04T21:16:07.289Z,0.00
2023-03-04T21:21:06.728Z,0.00
2023-03-04T21:26:08.196Z,0.00
2023-03-04T21:31:08.237Z,0.00
2023-03-04T21:36:08.841Z,0.00
2023-03-04T21:41:08.174Z,0.00
2023-03-04T21:46:09.580Z,0.00
2023-03-04T21:51:10.969Z,0.00
2023-03-04T21:56:12.498Z,0.00
2023-03-04T22:01:11.812Z,0.00
2023-03-04T22:06:12.984Z,0.00
2023-03-04T22:11:14.324Z,0.00
2023-03-04T22:16:15.595Z,0.00
2023-03-04T22:21:15.773Z,0.00
2023-03-04T22:26:17.032Z,0.00
2023-03-04T22:31:18.244Z,0.00
2023-03-04T22:36:20.459Z,0.00
2023-03-04T22:41:19.652Z,0.00
2023-03-04T22:46:21.746Z,0.00
2023-03-04T22:51:21.889Z,0.00
2023-03-04T22:56:21.092Z,0.00
2023-03-04T23:01:22.333Z,0.00
2023-03-04T23:06:23.475Z,0.00
2023-03-04T23:11:25.666Z,0.00
2023-03-04T23:16:24.823Z,0.00
2023-03-04T23:21:26.910Z,0.00
2023-03-04T23:26:26.060Z,0.00
2023-03-04T23:31:27.257Z,0.00
2023-03-04T23:36:28.344Z,0.00
2023-03-04T23:41:30.438Z,0.00
2023-03-04T23:46:30.626Z,0.00
2023-03-04T23:51:30.177Z,0.00
2023-03-04T23:56:29.443Z,0.00
